Time;durP1;ratioP1;P1;durP2;ratioP2;P2;SDS_P1;SDS_P2;PMS_P1;PMS_P2;Temp;Humidity;BMP_temperature;BMP_pressure;BME280_temperature;BME280_humidity;BME280_pressure;Samples;Min_cycle;Max_cycle;Signal;HPM_P1;HPM_P2
2021/04/25 00:01:52;;;;;;;85.40;43.05;;;282.40;1433.60;;;;;;5056390;28;20366;-71
2021/04/25 00:04:18;;;;;;;86.78;45.00;;;282.30;1433.60;;;;;;5055928;28;20413;-72
2021/04/25 00:06:44;;;;;;;72.55;35.50;;;282.30;1433.60;;;;;;5056417;28;20392;-71
2021/04/25 00:09:11;;;;;;;66.43;34.20;;;282.20;1459.20;;;;;;5055977;28;20405;-71
2021/04/25 00:11:37;;;;;;;79.15;37.92;;;281.90;1484.80;;;;;;5055920;28;20409;-72
2021/04/25 00:14:04;;;;;;;66.47;36.33;;;282.00;1484.80;;;;;;5056250;28;20366;-71
2021/04/25 00:16:31;;;;;;;63.13;34.17;;;282.10;1459.20;;;;;;5055871;28;20378;-71
2021/04/25 00:19:00;;;;;;;55.15;30.20;;;282.10;1459.20;;;;;;5055774;28;20422;-71
2021/04/25 00:21:27;;;;;;;58.25;30.08;;;282.00;1459.20;;;;;;5037968;28;20453;-72
2021/04/25 00:23:57;;;;;;;62.50;31.95;;;282.10;1484.80;;;;;;5055795;28;20457;-71
2021/04/25 00:26:23;;;;;;;58.47;32.92;;;282.00;1510.40;;;;;;5056296;28;20504;-70
2021/04/25 00:28:49;;;;;;;71.57;34.90;;;282.00;1484.80;;;;;;5055300;28;20415;-71
2021/04/25 00:31:17;;;;;;;74.20;37.42;;;281.90;1484.80;;;;;;5055834;28;20401;-71
2021/04/25 00:33:43;;;;;;;69.97;35.22;;;281.90;1510.40;;;;;;5055909;28;20468;-71
2021/04/25 00:36:09;;;;;;;66.25;33.10;;;281.90;1484.80;;;;;;5055559;28;20369;-71
2021/04/25 00:38:35;;;;;;;69.68;32.53;;;282.00;1484.80;;;;;;5055549;28;20362;-70
2021/04/25 00:41:02;;;;;;;74.13;34.35;;;281.90;1484.80;;;;;;5055401;28;20427;-70
2021/04/25 00:43:28;;;;;;;73.70;35.55;;;281.90;1484.80;;;;;;5055358;28;20357;-70
2021/04/25 00:45:54;;;;;;;80.05;35.88;;;281.60;1536.00;;;;;;5055305;28;20017;-71
2021/04/25 00:48:22;;;;;;;68.82;34.55;;;256.90;1536.00;;;;;;5055222;28;20365;-70
2021/04/25 00:50:49;;;;;;;76.30;35.95;;;281.60;1536.00;;;;;;5055118;28;20354;-70
2021/04/25 00:53:15;;;;;;;72.30;34.83;;;281.60;1536.00;;;;;;5055220;28;20448;-70
2021/04/25 00:55:41;;;;;;;69.88;33.70;;;256.90;1510.40;;;;;;5055171;28;20473;-70
2021/04/25 00:58:08;;;;;;;62.58;31.67;;;256.90;1510.40;;;;;;5055323;28;20362;-70
2021/04/25 01:00:34;;;;;;;62.60;32.03;;;256.70;1510.40;;;;;;5055059;28;20035;-71
2021/04/25 01:03:01;;;;;;;59.20;30.42;;;256.50;1536.00;;;;;;5055309;28;20385;-71
2021/04/25 01:05:27;;;;;;;56.80;28.80;;;256.30;1561.60;;;;;;5054826;28;20366;-70
2021/04/25 01:07:53;;;;;;;52.75;27.60;;;256.10;1561.60;;;;;;5055260;28;20362;-70
2021/04/25 01:10:20;;;;;;;58.60;29.02;;;256.30;1561.60;;;;;;5054836;28;20412;-71
2021/04/25 01:12:46;;;;;;;49.65;26.23;;;256.50;1536.00;;;;;;5054839;28;20029;-71
2021/04/25 01:15:15;;;;;;;50.83;23.92;;;256.60;1536.00;;;;;;5054758;28;20339;-71
2021/04/25 01:17:46;;;;;;;42.47;24.58;;;256.50;1536.00;;;;;;5054719;28;20512;-71
2021/04/25 01:20:14;;;;;;;49.72;26.58;;;256.60;1536.00;;;;;;5054674;28;20401;-71
2021/04/25 01:22:40;;;;;;;42.25;22.73;;;256.70;1536.00;;;;;;5054887;28;20354;-71
2021/04/25 01:25:08;;;;;;;36.78;20.40;;;256.70;1510.40;;;;;;5054859;28;20436;-71
2021/04/25 01:27:34;;;;;;;41.20;20.60;;;256.30;1561.60;;;;;;5055418;28;20358;-71
2021/04/25 01:30:02;;;;;;;39.08;20.42;;;256.30;1536.00;;;;;;5054418;28;20401;-71
2021/04/25 01:32:29;;;;;;;41.90;21.85;;;256.40;1536.00;;;;;;5054436;28;20462;-71
2021/04/25 01:34:55;;;;;;;38.67;23.45;;;256.60;1510.40;;;;;;5036578;28;20358;-71
2021/04/25 01:37:22;;;;;;;35.58;21.55;;;256.70;1484.80;;;;;;5054364;28;20523;-71
2021/04/25 01:39:50;;;;;;;37.58;21.67;;;256.70;1484.80;;;;;;5054321;28;20465;-71
2021/04/25 01:42:16;;;;;;;39.47;22.90;;;256.60;1484.80;;;;;;5053397;28;20366;-71
2021/04/25 01:44:43;;;;;;;34.90;21.65;;;256.60;1484.80;;;;;;5036393;28;20377;-71
2021/04/25 01:47:09;;;;;;;31.83;21.27;;;256.60;1510.40;;;;;;5054167;28;20569;-71
2021/04/25 01:49:35;;;;;;;31.88;21.08;;;256.20;1536.00;;;;;;5054007;28;20550;-71
2021/04/25 01:52:02;;;;;;;40.35;23.15;;;256.40;1510.40;;;;;;5054117;28;20481;-72
2021/04/25 01:54:28;;;;;;;39.72;23.25;;;256.50;1484.80;;;;;;5054066;28;20354;-71
2021/04/25 01:56:55;;;;;;;33.45;21.95;;;256.40;1484.80;;;;;;5054044;28;20339;-71
2021/04/25 01:59:21;;;;;;;39.42;21.70;;;256.40;1510.40;;;;;;5053930;28;20440;-71
2021/04/25 02:01:47;;;;;;;37.22;22.00;;;256.40;1510.40;;;;;;5053878;28;20405;-71
2021/04/25 02:04:14;;;;;;;36.08;21.98;;;256.20;1510.40;;;;;;5053760;28;20473;-72
2021/04/25 02:06:44;;;;;;;35.40;21.98;;;256.20;1510.40;;;;;;5054512;28;20394;-71
2021/04/25 02:09:11;;;;;;;34.20;21.73;;;256.20;1536.00;;;;;;5054073;28;20017;-71
2021/04/25 02:11:37;;;;;;;34.97;20.83;;;256.10;1561.60;;;;;;5053911;28;20037;-72
2021/04/25 02:14:05;;;;;;;41.90;21.55;;;256.10;1536.00;;;;;;5053671;28;20545;-71
2021/04/25 02:16:32;;;;;;;35.33;21.83;;;256.00;1561.60;;;;;;5053702;28;20351;-72
2021/04/25 02:18:58;;;;;;;37.90;23.05;;;256.00;1561.60;;;;;;5053579;28;20024;-71
2021/04/25 02:21:25;;;;;;;40.63;22.83;;;231.30;1561.60;;;;;;5053560;28;20366;-71
2021/04/25 02:23:51;;;;;;;37.33;23.10;;;256.10;1561.60;;;;;;5053542;28;20373;-71
2021/04/25 02:26:17;;;;;;;35.58;21.50;;;256.10;1536.00;;;;;;5053475;28;20460;-71
2021/04/25 02:28:43;;;;;;;38.65;22.75;;;256.10;1536.00;;;;;;5053572;28;20378;-71
2021/04/25 02:31:09;;;;;;;35.25;21.98;;;256.00;1561.60;;;;;;5053658;28;20365;-71
2021/04/25 02:33:36;;;;;;;36.58;23.42;;;231.30;1561.60;;;;;;5053716;28;20188;-72
2021/04/25 02:36:03;;;;;;;51.63;23.80;;;231.30;1561.60;;;;;;5053394;28;20021;-71
2021/04/25 02:38:29;;;;;;;52.15;25.27;;;256.00;1561.60;;;;;;5053369;28;20398;-71
2021/04/25 02:40:56;;;;;;;46.63;27.45;;;231.00;1587.20;;;;;;5053377;28;20059;-71
2021/04/25 02:43:22;;;;;;;76.95;41.05;;;231.20;1561.60;;;;;;5053267;28;20338;-71
2021/04/25 02:45:48;;;;;;;66.28;36.10;;;231.10;1587.20;;;;;;5053595;28;20023;-71
2021/04/25 02:48:14;;;;;;;49.50;29.00;;;230.80;1612.80;;;;;;5053266;28;20361;-71
2021/04/25 02:50:42;;;;;;;50.28;29.67;;;230.80;1587.20;;;;;;5053200;28;20025;-71
2021/04/25 02:53:11;;;;;;;50.67;30.42;;;231.10;1587.20;;;;;;5057253;28;20369;-71
2021/04/25 02:55:38;;;;;;;49.88;29.75;;;231.20;1561.60;;;;;;5059843;28;20481;-71
2021/04/25 02:58:05;;;;;;;54.55;32.70;;;231.20;1561.60;;;;;;5059840;28;20471;-71
2021/04/25 03:00:32;;;;;;;52.35;32.58;;;231.30;1536.00;;;;;;5060081;28;20353;-72
2021/04/25 03:02:58;;;;;;;61.15;35.42;;;256.00;1536.00;;;;;;5059715;28;20028;-71
2021/04/25 03:05:26;;;;;;;43.67;26.70;;;231.30;1536.00;;;;;;5059586;28;20433;-71
2021/04/25 03:07:52;;;;;;;38.33;23.63;;;231.20;1561.60;;;;;;5059675;28;20357;-71
2021/04/25 03:10:21;;;;;;;38.80;25.05;;;231.30;1561.60;;;;;;5059653;28;20476;-71
2021/04/25 03:12:47;;;;;;;41.78;25.02;;;231.00;1587.20;;;;;;5059669;28;20481;-71
2021/04/25 03:15:16;;;;;;;37.67;23.02;;;230.70;1638.40;;;;;;5059912;28;20388;-71
2021/04/25 03:17:42;;;;;;;47.08;25.45;;;230.40;1664.00;;;;;;5059643;28;20452;-71
2021/04/25 03:20:10;;;;;;;40.67;23.60;;;205.70;1715.20;;;;;;5059667;28;20369;-71
2021/04/25 03:22:37;;;;;;;39.28;24.33;;;205.60;1715.20;;;;;;5059539;28;20460;-71
2021/04/25 03:25:05;;;;;;;43.25;24.92;;;230.60;1664.00;;;;;;5059499;28;20357;-70
2021/04/25 03:27:31;;;;;;;38.78;24.52;;;230.80;1612.80;;;;;;5059483;28;20412;-70
2021/04/25 03:29:57;;;;;;;50.22;24.55;;;231.00;1612.80;;;;;;5041694;28;20374;-70
2021/04/25 03:32:23;;;;;;;49.78;25.02;;;231.00;1638.40;;;;;;5059555;28;20378;-71
2021/04/25 03:34:49;;;;;;;43.30;24.33;;;230.70;1664.00;;;;;;5059802;28;20409;-71
2021/04/25 03:37:15;;;;;;;43.00;24.70;;;230.70;1664.00;;;;;;5059456;28;20411;-71
2021/04/25 03:39:41;;;;;;;44.72;23.98;;;230.80;1638.40;;;;;;5059463;28;20025;-71
2021/04/25 03:42:08;;;;;;;43.83;24.65;;;230.80;1612.80;;;;;;5059423;28;20418;-71
2021/04/25 03:44:34;;;;;;;45.88;23.80;;;230.80;1612.80;;;;;;5059502;28;20366;-71
2021/04/25 03:47:00;;;;;;;42.92;24.52;;;230.70;1638.40;;;;;;5059730;28;20338;-71
2021/04/25 03:49:26;;;;;;;49.55;23.70;;;230.80;1612.80;;;;;;5059405;28;20365;-72
2021/04/25 03:51:55;;;;;;;43.83;23.02;;;230.50;1638.40;;;;;;5059325;28;20369;-71
2021/04/25 03:54:21;;;;;;;40.88;23.90;;;230.70;1612.80;;;;;;5059689;28;20103;-71
2021/04/25 03:56:48;;;;;;;39.10;22.98;;;230.70;1638.40;;;;;;5059317;28;20370;-70
2021/04/25 03:59:14;;;;;;;41.78;23.52;;;230.70;1612.80;;;;;;5059342;28;20458;-70
2021/04/25 04:01:40;;;;;;;56.33;30.92;;;230.90;1587.20;;;;;;5059193;28;20370;-71
2021/04/25 04:04:06;;;;;;;70.10;33.72;;;231.00;1587.20;;;;;;5056926;28;20393;-70
2021/04/25 04:06:32;;;;;;;63.92;33.35;;;231.10;1587.20;;;;;;5056393;28;20347;-70
2021/04/25 04:08:59;;;;;;;71.25;36.05;;;231.10;1561.60;;;;;;5056206;28;20448;-71
2021/04/25 04:11:25;;;;;;;68.53;37.20;;;231.10;1561.60;;;;;;5055951;28;20032;-72
2021/04/25 04:13:51;;;;;;;48.65;27.20;;;231.00;1561.60;;;;;;5055890;28;20350;-71
2021/04/25 04:16:18;;;;;;;69.07;34.22;;;231.10;1536.00;;;;;;5055845;28;20456;-71
2021/04/25 04:18:44;;;;;;;100.82;46.08;;;231.10;1561.60;;;;;;5056236;28;20441;-71
2021/04/25 04:21:11;;;;;;;62.45;32.33;;;231.10;1561.60;;;;;;5056085;28;20467;-71
2021/04/25 04:23:37;;;;;;;60.28;32.63;;;231.30;1536.00;;;;;;5055775;28;20457;-71
2021/04/25 04:26:03;;;;;;;64.88;34.65;;;231.20;1561.60;;;;;;5055991;28;20416;-71
2021/04/25 04:28:29;;;;;;;97.30;49.03;;;231.10;1561.60;;;;;;5055742;28;20360;-71
2021/04/25 04:30:55;;;;;;;119.90;60.92;;;230.80;1612.80;;;;;;5056160;28;20366;-70
2021/04/25 04:33:21;;;;;;;81.60;43.38;;;230.70;1664.00;;;;;;5055582;28;20420;-70
2021/04/25 04:35:47;;;;;;;80.57;42.92;;;230.90;1612.80;;;;;;5055485;28;20454;-71
2021/04/25 04:38:13;;;;;;;94.68;49.58;;;231.00;1587.20;;;;;;5055552;28;20339;-71
2021/04/25 04:40:39;;;;;;;120.15;57.05;;;231.10;1587.20;;;;;;5055748;28;20032;-71
2021/04/25 04:43:06;;;;;;;106.15;50.95;;;231.30;1587.20;;;;;;5055458;28;20484;-71
2021/04/25 04:45:32;;;;;;;97.90;46.67;;;256.00;1587.20;;;;;;5055342;28;20556;-72
2021/04/25 04:47:58;;;;;;;96.78;48.85;;;256.00;1561.60;;;;;;5055366;28;20365;-71
2021/04/25 04:50:24;;;;;;;72.60;40.80;;;256.00;1587.20;;;;;;5055249;28;20354;-71
2021/04/25 04:52:50;;;;;;;67.50;37.45;;;256.00;1587.20;;;;;;5055180;28;20365;-71
2021/04/25 04:55:17;;;;;;;52.75;31.23;;;256.10;1587.20;;;;;;5055306;28;20408;-71
2021/04/25 04:57:44;;;;;;;48.35;29.02;;;256.30;1536.00;;;;;;5055179;28;20466;-71
2021/04/25 05:00:11;;;;;;;46.20;28.55;;;256.30;1536.00;;;;;;5055175;28;20013;-71
2021/04/25 05:02:37;;;;;;;42.47;27.95;;;256.50;1536.00;;;;;;5054557;28;20369;-71
2021/04/25 05:05:06;;;;;;;42.75;28.08;;;256.70;1484.80;;;;;;5054870;28;20430;-71
2021/04/25 05:07:33;;;;;;;44.83;27.48;;;256.80;1484.80;;;;;;5055044;28;20413;-71
2021/04/25 05:09:59;;;;;;;44.33;26.83;;;256.80;1484.80;;;;;;5054807;28;20343;-72
2021/04/25 05:12:25;;;;;;;43.35;27.05;;;281.60;1510.40;;;;;;5055176;28;20405;-71
2021/04/25 05:14:51;;;;;;;45.70;27.58;;;281.70;1510.40;;;;;;5054605;28;20540;-71
2021/04/25 05:17:17;;;;;;;41.25;26.40;;;281.80;1510.40;;;;;;5035848;28;20369;-72
2021/04/25 05:19:43;;;;;;;41.88;25.95;;;281.80;1510.40;;;;;;5054682;28;20358;-71
2021/04/25 05:22:10;;;;;;;36.72;23.73;;;281.80;1536.00;;;;;;5054653;28;20393;-71
2021/04/25 05:24:36;;;;;;;38.10;24.25;;;282.00;1510.40;;;;;;5054554;28;20373;-72
2021/04/25 05:27:02;;;;;;;34.20;23.13;;;282.10;1484.80;;;;;;5055127;28;20442;-72
2021/04/25 05:29:28;;;;;;;30.35;21.02;;;282.20;1484.80;;;;;;5054503;28;20347;-72
2021/04/25 05:31:54;;;;;;;31.60;22.02;;;282.30;1459.20;;;;;;5054439;28;20116;-71
2021/04/25 05:34:21;;;;;;;33.55;23.13;;;282.30;1484.80;;;;;;5054459;28;20366;-72
2021/04/25 05:36:48;;;;;;;39.20;24.80;;;282.40;1484.80;;;;;;5054458;28;20525;-71
2021/04/25 05:39:14;;;;;;;38.67;25.35;;;282.40;1484.80;;;;;;5054262;28;20413;-71
2021/04/25 05:41:40;;;;;;;32.17;22.90;;;282.40;1484.80;;;;;;5054299;28;20347;-71
2021/04/25 05:44:06;;;;;;;32.45;23.00;;;282.40;1484.80;;;;;;5054221;28;20430;-71
2021/04/25 05:46:35;;;;;;;38.88;24.17;;;307.20;1536.00;;;;;;5054244;28;20470;-72
2021/04/25 05:49:03;;;;;;;34.40;23.95;;;307.20;1536.00;;;;;;5054382;28;20405;-71
2021/04/25 05:51:30;;;;;;;30.88;22.13;;;307.30;1510.40;;;;;;5054005;28;20421;-71
2021/04/25 05:53:56;;;;;;;32.78;22.10;;;307.50;1510.40;;;;;;5054056;28;20393;-71
2021/04/25 05:56:23;;;;;;;37.45;24.95;;;307.70;1484.80;;;;;;5054009;28;20400;-71
2021/04/25 05:58:49;;;;;;;31.73;21.90;;;307.80;1484.80;;;;;;5054268;28;20449;-71
2021/04/25 06:01:16;;;;;;;32.05;22.15;;;307.90;1459.20;;;;;;5053972;28;20382;-71
2021/04/25 06:03:42;;;;;;;31.90;21.52;;;308.00;1433.60;;;;;;5053654;28;20514;-72
2021/04/25 06:06:09;;;;;;;27.90;19.63;;;308.10;1433.60;;;;;;5054168;28;20370;-72
2021/04/25 06:08:36;;;;;;;31.38;21.10;;;332.80;1459.20;;;;;;5054094;28;20368;-72
2021/04/25 06:14:24;;;;;;;28.50;18.85;;;333.10;1433.60;;;;;;5053888;28;20028;-71
2021/04/25 06:16:50;;;;;;;28.05;20.10;;;333.30;1433.60;;;;;;5053895;28;20403;-71
2021/04/25 06:19:16;;;;;;;28.85;18.00;;;333.50;1408.00;;;;;;5053752;28;20392;-71
2021/04/25 06:21:42;;;;;;;24.52;18.20;;;358.60;1356.80;;;;;;5053678;28;20027;-70
2021/04/25 06:24:09;;;;;;;26.63;18.13;;;359.00;1305.60;;;;;;5054193;28;20432;-70
2021/04/25 06:26:35;;;;;;;24.60;18.48;;;384.30;1280.00;;;;;;5053425;28;20419;-71
2021/04/25 06:29:01;;;;;;;29.15;21.40;;;409.70;1228.80;;;;;;5053712;28;20362;-70
2021/04/25 06:31:27;;;;;;;28.23;20.13;;;410.00;1228.80;;;;;;5053483;28;20422;-70
2021/04/25 06:33:53;;;;;;;29.92;20.42;;;409.80;1228.80;;;;;;5053712;28;20393;-70
2021/04/25 06:36:20;;;;;;;28.98;20.77;;;409.60;1228.80;;;;;;5053469;28;20420;-70
2021/04/25 06:38:46;;;;;;;26.92;19.70;;;409.60;1228.80;;;;;;5053471;28;20029;-70
2021/04/25 06:41:12;;;;;;;27.58;20.38;;;384.80;1228.80;;;;;;5053417;28;20050;-71
2021/04/25 06:43:38;;;;;;;29.85;21.27;;;384.80;1203.20;;;;;;5053389;28;20381;-71
2021/04/25 06:46:04;;;;;;;29.92;21.75;;;384.90;1228.80;;;;;;5053422;28;20377;-71
2021/04/25 06:48:30;;;;;;;29.10;21.67;;;409.60;1254.40;;;;;;5053566;28;20331;-71
2021/04/25 06:50:56;;;;;;;28.55;19.50;;;409.80;1228.80;;;;;;5053204;28;20411;-71
2021/04/25 06:53:22;;;;;;;25.40;17.30;;;409.80;1203.20;;;;;;5053280;28;20481;-70
2021/04/25 06:55:48;;;;;;;31.38;16.83;;;409.90;1203.20;;;;;;5053185;28;20021;-71
2021/04/25 06:58:14;;;;;;;23.90;17.98;;;410.00;1177.60;;;;;;5053292;28;20350;-70
2021/04/25 07:00:40;;;;;;;28.13;19.08;;;410.20;1177.60;;;;;;5053173;28;20381;-71
2021/04/25 07:03:07;;;;;;;25.25;17.88;;;410.40;1203.20;;;;;;5053126;28;20452;-70
2021/04/25 07:05:33;;;;;;;22.98;16.50;;;410.50;1177.60;;;;;;5052979;28;20397;-70
2021/04/25 07:07:59;;;;;;;22.50;17.63;;;435.20;1126.40;;;;;;5053129;28;20405;-70
2021/04/25 07:10:26;;;;;;;24.48;16.90;;;435.40;1152.00;;;;;;5053019;28;20376;-71
2021/04/25 07:12:52;;;;;;;28.00;16.75;;;435.40;1126.40;;;;;;5053444;28;20382;-70
2021/04/25 07:15:19;;;;;;;22.08;16.33;;;435.50;1075.20;;;;;;5053347;28;20346;-70
2021/04/25 07:17:45;;;;;;;24.33;16.83;;;435.60;1075.20;;;;;;5053035;28;20636;-70
2021/04/25 07:20:12;;;;;;;21.02;16.23;;;435.70;1100.80;;;;;;5053066;28;20500;-70
2021/04/25 07:22:39;;;;;;;28.17;18.05;;;435.90;1075.20;;;;;;5052937;28;20434;-71
2021/04/25 07:25:07;;;;;;;24.27;16.27;;;435.90;1100.80;;;;;;5052742;28;20374;-70
2021/04/25 07:27:34;;;;;;;23.85;17.63;;;436.00;1049.60;;;;;;5052880;28;20373;-70
2021/04/25 07:30:00;;;;;;;22.17;14.40;;;436.10;1024.00;;;;;;5052793;28;20370;-71
2021/04/25 07:32:27;;;;;;;24.08;15.07;;;460.80;1024.00;;;;;;5052745;28;20418;-71
2021/04/25 07:34:53;;;;;;;22.67;14.70;;;460.90;1049.60;;;;;;5052950;28;20408;-70
2021/04/25 07:37:19;;;;;;;22.33;14.23;;;460.90;998.40;;;;;;5052696;28;20371;-71
2021/04/25 07:39:45;;;;;;;20.63;13.80;;;461.00;972.80;;;;;;5054209;28;20465;-71
2021/04/25 07:42:13;;;;;;;22.48;13.75;;;461.20;972.80;;;;;;5056529;28;20362;-71
2021/04/25 07:44:41;;;;;;;22.95;13.40;;;461.30;972.80;;;;;;5057120;28;20428;-71
2021/04/25 07:47:08;;;;;;;27.08;14.35;;;461.40;947.20;;;;;;5056469;28;20439;-70
2021/04/25 07:49:34;;;;;;;20.70;13.00;;;461.50;896.00;;;;;;5056475;28;20343;-79
2021/04/25 07:52:01;;;;;;;17.42;12.35;;;461.50;896.00;;;;;;5056452;28;20413;-73
2021/04/25 07:54:27;;;;;;;21.05;13.15;;;461.60;896.00;;;;;;5056509;28;20540;-73
2021/04/25 07:56:55;;;;;;;21.20;12.27;;;461.70;921.60;;;;;;5056246;28;20454;-74
2021/04/25 07:59:21;;;;;;;22.60;12.35;;;486.40;921.60;;;;;;5056316;28;20484;-72
2021/04/25 08:01:47;;;;;;;21.35;13.02;;;486.40;896.00;;;;;;5056256;28;20372;-72
2021/04/25 08:04:14;;;;;;;19.58;12.52;;;486.40;896.00;;;;;;5056046;28;20377;-76
2021/04/25 08:06:41;;;;;;;19.67;12.15;;;486.50;921.60;;;;;;5056323;28;20539;-73
2021/04/25 08:09:07;;;;;;;18.35;10.68;;;486.50;819.20;;;;;;5056124;28;20047;-71
2021/04/25 08:11:33;;;;;;;16.80;11.23;;;486.50;819.20;;;;;;5055995;28;20377;-74
2021/04/25 08:13:59;;;;;;;17.23;9.70;;;486.60;819.20;;;;;;5038742;28;20338;-72
2021/04/25 08:16:25;;;;;;;16.83;9.93;;;486.60;819.20;;;;;;5055966;28;20405;-73
2021/04/25 08:18:52;;;;;;;14.50;9.63;;;486.60;819.20;;;;;;5055951;28;20365;-74
2021/04/25 08:21:18;;;;;;;18.83;10.32;;;486.70;793.60;;;;;;5055919;28;20369;-72
2021/04/25 08:23:44;;;;;;;18.58;10.23;;;486.70;819.20;;;;;;5056022;28;20104;-73
2021/04/25 08:26:10;;;;;;;18.08;11.07;;;486.70;819.20;;;;;;5055647;28;20118;-72
2021/04/25 08:28:36;;;;;;;19.38;11.10;;;486.70;793.60;;;;;;5055475;28;20367;-73
2021/04/25 08:31:02;;;;;;;19.10;10.88;;;486.80;819.20;;;;;;5055400;28;20485;-74
2021/04/25 08:33:28;;;;;;;17.08;11.05;;;486.80;819.20;;;;;;5055568;28;20346;-74
2021/04/25 08:35:54;;;;;;;17.60;11.05;;;486.90;870.40;;;;;;5055847;28;20365;-74
2021/04/25 08:38:21;;;;;;;20.27;11.15;;;487.10;819.20;;;;;;5055624;28;20020;-76
2021/04/25 08:40:47;;;;;;;20.05;11.60;;;486.90;819.20;;;;;;5055439;28;20365;-75
2021/04/25 08:43:14;;;;;;;21.85;11.43;;;486.90;844.80;;;;;;5055742;28;20392;-72
2021/04/25 08:45:45;;;;;;;16.15;10.93;;;487.10;844.80;;;;;;5055332;28;20423;-74
2021/04/25 08:48:14;;;;;;;20.67;12.93;;;487.10;819.20;;;;;;5055463;28;20369;-72
2021/04/25 08:50:41;;;;;;;17.10;10.23;;;487.10;844.80;;;;;;5055137;28;20370;-72
2021/04/25 08:53:08;;;;;;;20.20;10.63;;;487.10;844.80;;;;;;5037799;28;20420;-71
2021/04/25 08:55:35;;;;;;;18.13;11.40;;;487.10;844.80;;;;;;5055578;28;20393;-74
2021/04/25 08:58:01;;;;;;;20.38;12.70;;;487.20;819.20;;;;;;5055309;28;20408;-73
2021/04/25 09:00:27;;;;;;;20.23;11.63;;;487.10;844.80;;;;;;5055108;28;20441;-72
2021/04/25 09:02:54;;;;;;;17.42;10.38;;;487.20;793.60;;;;;;5055378;28;20461;-72
2021/04/25 09:05:21;;;;;;;18.17;10.23;;;487.20;768.00;;;;;;5054789;28;20480;-73
2021/04/25 09:08:02;;;;;;;19.95;13.10;;;487.30;793.60;;;;;;5055268;28;20397;-72
2021/04/25 09:10:39;;;;;;;23.10;9.77;;;487.30;793.60;;;;;;5054711;28;20532;-71
2021/04/25 09:13:18;;;;;;;19.30;10.23;;;487.30;793.60;;;;;;5054878;28;20427;-71
2021/04/25 09:15:45;;;;;;;14.52;9.20;;;512.00;768.00;;;;;;5054488;28;20393;-72
2021/04/25 09:18:11;;;;;;;16.02;9.80;;;512.10;768.00;;;;;;5054633;28;20373;-72
2021/04/25 09:20:45;;;;;;;15.55;9.00;;;512.10;768.00;;;;;;5054540;28;20400;-70
2021/04/25 09:23:21;;;;;;;17.27;9.10;;;512.10;742.40;;;;;;5054592;28;20518;-73
2021/04/25 09:25:56;;;;;;;16.55;9.98;;;512.20;742.40;;;;;;5054714;28;20352;-74
2021/04/25 09:28:23;;;;;;;16.92;9.77;;;512.20;742.40;;;;;;5053884;28;20355;-72
2021/04/25 09:31:00;;;;;;;18.13;9.75;;;512.20;793.60;;;;;;5054264;28;20500;-69
2021/04/25 09:33:29;;;;;;;16.58;9.55;;;512.20;768.00;;;;;;5054546;28;20469;-70
2021/04/25 09:35:57;;;;;;;15.90;9.52;;;512.20;742.40;;;;;;5054270;28;20021;-70
2021/04/25 09:38:24;;;;;;;15.75;10.25;;;512.30;768.00;;;;;;5054377;28;20347;-70
2021/04/25 09:40:51;;;;;;;14.43;9.30;;;512.30;793.60;;;;;;5054263;28;20497;-72
2021/04/25 09:43:20;;;;;;;16.58;9.65;;;512.20;742.40;;;;;;5054499;28;20346;-71
2021/04/25 09:45:54;;;;;;;13.65;9.50;;;512.20;742.40;;;;;;5054257;28;20500;-70
2021/04/25 09:48:21;;;;;;;17.42;10.07;;;512.30;742.40;;;;;;5054158;28;20382;-70
2021/04/25 09:51:11;;;;;;;16.95;9.75;;;512.30;793.60;;;;;;5053896;28;20373;-71
2021/04/25 09:53:39;;;;;;;15.95;9.05;;;512.50;793.60;;;;;;5053947;28;20009;-71
2021/04/25 09:56:07;;;;;;;13.60;9.20;;;512.50;742.40;;;;;;5054054;28;20404;-71
2021/04/25 09:58:33;;;;;;;14.43;8.60;;;512.60;793.60;;;;;;5053943;28;20416;-71
2021/04/25 10:00:59;;;;;;;15.07;8.23;;;512.60;742.40;;;;;;5054172;28;20361;-71
2021/04/25 10:03:36;;;;;;;14.90;9.30;;;512.70;716.80;;;;;;5035535;28;20388;-70
2021/04/25 10:06:06;;;;;;;14.45;8.40;;;512.80;716.80;;;;;;5034058;28;20359;-70
2021/04/25 10:08:37;;;;;;;13.95;8.88;;;512.80;716.80;;;;;;5033883;28;20426;-73
2021/04/25 10:11:07;;;;;;;12.57;8.10;;;512.80;691.20;;;;;;5016764;28;20405;-71
2021/04/25 10:13:44;;;;;;;16.02;8.85;;;512.80;716.80;;;;;;5033981;28;20339;-71
2021/04/25 10:16:11;;;;;;;13.52;8.48;;;512.70;716.80;;;;;;5033726;28;20417;-71
2021/04/25 10:18:38;;;;;;;13.85;8.50;;;512.80;691.20;;;;;;5033731;28;20373;-73
2021/04/25 10:21:05;;;;;;;16.00;8.52;;;512.70;691.20;;;;;;5033612;28;20358;-72
2021/04/25 10:23:31;;;;;;;14.93;8.30;;;512.80;716.80;;;;;;5033566;28;20385;-70
2021/04/25 10:25:57;;;;;;;12.73;8.68;;;512.80;665.60;;;;;;5033539;28;20424;-72
2021/04/25 10:28:44;;;;;;;12.98;7.82;;;512.90;716.80;;;;;;5033871;28;20362;-71
2021/04/25 10:31:13;;;;;;;12.48;7.45;;;537.60;716.80;;;;;;5033441;28;20548;-71
2021/04/25 10:34:01;;;;;;;17.10;9.10;;;537.60;716.80;;;;;;5033568;28;20365;-70
2021/04/25 10:36:46;;;;;;;12.93;7.43;;;512.90;665.60;;;;;;5033501;28;20401;-72
2021/04/25 10:39:41;;;;;;;15.80;8.68;;;537.60;716.80;;;;;;5033589;28;20021;-71
2021/04/25 10:42:28;;;;;;;15.05;8.50;;;537.60;768.00;;;;;;5033277;28;20394;-72
2021/04/25 10:47:33;;;;;;;14.60;8.55;;;537.60;768.00;;;;;;5033357;28;20479;-72
2021/04/25 10:50:09;;;;;;;13.00;8.55;;;537.70;716.80;;;;;;5033569;28;20482;-72
2021/04/25 10:52:37;;;;;;;15.25;7.60;;;537.70;716.80;;;;;;5033502;28;20492;-72
2021/04/25 11:02:57;;;;;;;13.95;8.93;;;537.70;691.20;;;;;;5033379;28;20489;-71
2021/04/25 11:05:36;;;;;;;22.08;12.27;;;537.70;793.60;;;;;;5048051;28;20375;-73
2021/04/25 11:08:03;;;;;;;32.00;22.10;;;537.80;716.80;;;;;;5053399;28;20453;-73
2021/04/25 11:10:55;;;;;;;16.95;9.10;;;537.70;716.80;;;;;;5052974;28;20362;-73
2021/04/25 11:13:36;;;;;;;16.58;8.07;;;537.80;716.80;;;;;;5054065;28;20096;-72
2021/04/25 11:16:06;;;;;;;11.75;7.60;;;537.80;742.40;;;;;;5056881;28;20501;-74
2021/04/25 11:18:53;;;;;;;15.52;8.45;;;537.90;716.80;;;;;;5057278;28;20482;-72
2021/04/25 11:24:01;;;;;;;16.83;8.52;;;538.00;691.20;;;;;;5056978;28;20516;-71
2021/04/25 11:26:37;;;;;;;12.73;8.27;;;538.10;691.20;;;;;;5057202;28;20404;-72
2021/04/25 11:29:09;;;;;;;14.77;8.77;;;538.10;716.80;;;;;;5057144;28;20078;-72
2021/04/25 11:31:48;;;;;;;15.10;9.02;;;538.10;716.80;;;;;;5056801;28;20492;-73
2021/04/25 11:34:30;;;;;;;14.82;8.77;;;538.10;691.20;;;;;;5057517;28;20354;-72
2021/04/25 11:37:07;;;;;;;10.93;7.90;;;538.20;716.80;;;;;;5056993;28;20366;-72
2021/04/25 11:39:45;;;;;;;17.38;9.10;;;538.10;691.20;;;;;;5056991;28;20357;-72
2021/04/25 11:42:14;;;;;;;17.27;11.25;;;538.10;768.00;;;;;;5056625;28;20353;-72
2021/04/25 11:44:42;;;;;;;18.15;10.35;;;538.10;716.80;;;;;;5056561;28;20407;-73
2021/04/25 11:47:10;;;;;;;22.45;8.57;;;538.20;742.40;;;;;;5056762;28;20463;-72
2021/04/25 11:49:39;;;;;;;16.17;8.73;;;538.30;742.40;;;;;;5056516;28;20376;-72
2021/04/25 11:52:13;;;;;;;17.65;9.45;;;538.30;716.80;;;;;;5056678;28;20461;-71
2021/04/25 11:54:41;;;;;;;23.88;9.10;;;538.40;768.00;;;;;;5056444;28;20446;-71
2021/04/25 11:57:14;;;;;;;26.25;9.32;;;538.50;896.00;;;;;;5056380;28;20335;-71
2021/04/25 11:59:54;;;;;;;;;;;563.20;793.60;;;;;;5056729;28;20339;-71
2021/04/25 12:02:22;;;;;;;14.32;9.18;;;563.20;742.40;;;;;;5056260;28;20349;-71
2021/04/25 12:04:53;;;;;;;11.27;8.25;;;563.20;742.40;;;;;;5056075;28;20416;-71
2021/04/25 12:07:43;;;;;;;13.68;8.77;;;563.30;716.80;;;;;;5056463;28;20425;-71
2021/04/25 12:10:15;;;;;;;18.33;9.57;;;563.30;742.40;;;;;;5056377;28;20025;-71
2021/04/25 12:13:10;;;;;;;12.88;8.48;;;563.30;742.40;;;;;;5056068;28;20450;-72
2021/04/25 12:15:54;;;;;;;13.77;7.85;;;563.30;716.80;;;;;;5038718;28;20411;-72
2021/04/25 12:18:40;;;;;;;12.88;7.30;;;563.30;716.80;;;;;;5055985;28;20480;-72
2021/04/25 12:21:13;;;;;;;16.63;8.13;;;563.20;716.80;;;;;;5056032;28;20473;-72
2021/04/25 12:23:49;;;;;;;16.55;8.80;;;563.20;896.00;;;;;;5056262;28;20430;-72
2021/04/25 12:26:17;;;;;;;14.50;8.13;;;563.20;716.80;;;;;;5055236;28;20021;-74